createdAt,value
2023-01-15T00:01:21.068Z,7.264905818575062
2023-01-15T00:04:18.486Z,7.187835164234275
2023-01-15T00:07:17.013Z,7.150584371443619
2023-01-15T00:11:16.861Z,7.120398395403117
2023-01-15T00:14:16.599Z,7.026629257304103
2023-01-15T00:17:16.337Z,7.032409543835456
2023-01-15T00:21:15.735Z,7.019564463154893
2023-01-15T00:31:16.109Z,6.887902491055229
2023-01-15T00:34:16.517Z,6.914877123431597
2023-01-15T00:37:16.473Z,6.859001108125085
2023-01-15T00:41:16.026Z,6.841660282787143
2023-01-15T00:44:16.880Z,6.792206836142578
2023-01-15T00:47:16.444Z,6.760736475043177
2023-01-15T00:51:16.778Z,6.7735815190711035
2023-01-15T00:54:17.482Z,6.762020979364115
2023-01-15T00:57:17.285Z,6.718990094514811
2023-01-15T01:01:16.121Z,6.674032475432614
2023-01-15T01:04:16.729Z,6.666967708745597
2023-01-15T01:07:16.804Z,6.646415663330208
2023-01-15T01:11:18.117Z,6.627790376194753
2023-01-15T01:14:16.600Z,6.599531327154546
2023-01-15T01:17:16.355Z,6.5359484990033705
2023-01-15T01:21:16.095Z,6.57769479528979
2023-01-15T01:24:18.311Z,6.535306248441339
2023-01-15T01:27:18.802Z,6.507689478575867
2023-01-15T01:31:16.226Z,6.530168244108791
2023-01-15T01:34:16.468Z,6.429334967983687
2023-01-15T01:37:16.519Z,6.417132222425425
2023-01-15T01:41:16.332Z,6.385661991456527
2023-01-15T01:45:25.859Z,6.343915783550256
2023-01-15T01:47:19.404Z,6.28161763209655
2023-01-15T01:51:17.858Z,6.294462608276172
2023-01-15T01:54:20.495Z,6.259138928159155
2023-01-15T01:57:17.719Z,6.183995872575997
2023-01-15T02:01:17.249Z,6.175004400009584
2023-01-15T02:04:19.925Z,6.146103244225742
2023-01-15T02:07:17.396Z,6.094723434458501
2023-01-15T02:11:19.145Z,6.109495126785714
2023-01-15T02:14:23.070Z,6.034352195171232
2023-01-15T02:17:24.712Z,6.02086500890664
2023-01-15T02:21:24.032Z,6.083805228632355
2023-01-15T02:24:26.559Z,6.007377824647483
2023-01-15T02:27:18.814Z,6.0195805150812705
2023-01-15T02:31:20.509Z,6.029856466193541
2023-01-15T02:34:21.964Z,6.0003131098835185
2023-01-15T02:37:23.100Z,5.993248395669798
2023-01-15T02:41:35.913Z,5.992606148950381
2023-01-15T02:44:19.455Z,5.959851572290063
2023-01-15T02:47:18.809Z,5.970769763195949
2023-01-15T02:51:21.206Z,5.91296759098559
2023-01-15T02:54:17.722Z,5.890488978406938
2023-01-15T02:57:21.137Z,5.850669735513293
2023-01-15T03:01:20.383Z,5.837182576560826
2023-01-15T03:04:21.778Z,5.796721111736042
2023-01-15T03:07:20.943Z,5.848100752701066
2023-01-15T03:11:18.564Z,5.835255839731326
2023-01-15T03:14:20.925Z,5.801859074522872
2023-01-15T03:17:21.194Z,5.831402366195107
2023-01-15T03:21:20.219Z,5.804428056025427
2023-01-15T03:24:24.150Z,5.76203987053741
2023-01-15T03:27:16.270Z,5.782591715572925
2023-01-15T03:31:15.925Z,5.839109313431254
2023-01-15T03:34:16.196Z,5.826906647276428
2023-01-15T03:37:17.348Z,5.7845184512837475
2023-01-15T03:41:23.872Z,5.824979910665206
2023-01-15T03:44:26.995Z,5.8545232098680575
2023-01-15T03:47:28.133Z,5.795436621084809
2023-01-15T03:51:22.055Z,5.786445187035497
2023-01-15T03:54:25.093Z,5.7530484397986585
2023-01-15T03:57:25.888Z,5.733781091216952
2023-01-15T04:01:21.293Z,5.74020354028944
2023-01-15T04:04:17.801Z,5.7376345606058745
2023-01-15T04:07:17.791Z,5.7344233361037364
2023-01-15T04:11:22.535Z,5.755617419918781
2023-01-15T04:14:16.192Z,5.74726823479441
2023-01-15T04:17:16.255Z,5.76203987053741
2023-01-15T04:21:15.999Z,5.801216829158602
2023-01-15T04:24:16.494Z,5.757544155056621
2023-01-15T04:27:16.420Z,5.75625966496018
2023-01-15T04:31:16.976Z,5.78194947034508
2023-01-15T04:34:16.861Z,5.788371922828174
2023-01-15T04:37:18.659Z,5.812777246411224
2023-01-15T04:51:17.043Z,5.940584179779762
2023-01-15T04:54:17.756Z,5.966274037369658
2023-01-15T04:57:16.856Z,5.988110422041791
2023-01-15T05:01:17.431Z,6.051050619039233
2023-01-15T05:04:16.734Z,6.101145909087791
2023-01-15T05:07:16.531Z,6.113990859710611
2023-01-15T05:11:16.702Z,6.187849361091594
2023-01-15T05:14:16.871Z,6.23280673920317
2023-01-15T05:17:17.412Z,6.278406388335862
2023-01-15T05:21:19.428Z,6.330428551256136
2023-01-15T05:24:17.304Z,6.358687516459122
2023-01-15T05:27:16.174Z,6.444748964719565
2023-01-15T05:31:18.348Z,6.558427271539403
2023-01-15T05:34:16.391Z,6.5648497790014515
2023-01-15T05:37:16.232Z,6.58925531150453
2023-01-15T05:42:21.020Z,6.6727479723576835
2023-01-15T05:44:18.805Z,6.724128109543017
2023-01-15T05:47:16.223Z,6.803767379696728
2023-01-15T05:51:16.632Z,6.866065889768743
2023-01-15T05:54:22.583Z,6.942494017270292
2023-01-15T05:57:16.854Z,7.045254626335009
2023-01-15T06:01:16.864Z,7.153153391144952
2023-01-15T06:04:22.198Z,7.1981112476962155
2023-01-15T06:07:18.371Z,7.262336795708689
2023-01-15T06:11:16.233Z,7.30279891430555
2023-01-15T06:14:16.895Z,7.379227409788655
2023-01-15T06:17:16.635Z,7.402990904701528
2023-01-15T06:21:17.165Z,7.430607947151657
2023-01-15T06:24:18.217Z,7.443453086039881
2023-01-15T06:27:16.871Z,7.459509512208115
2023-01-15T06:31:18.765Z,7.507678807765842
2023-01-15T06:34:16.831Z,7.55905941788842
2023-01-15T06:37:16.870Z,7.593099088122199
2023-01-15T06:51:19.796Z,7.920651284739233
2023-01-15T06:54:16.744Z,7.977812475560131
2023-01-15T06:57:17.022Z,8.071582596941152
2023-01-15T07:01:16.746Z,8.09149270368298
2023-01-15T07:04:17.346Z,8.130670668419043
2023-01-15T07:07:18.483Z,8.187831991585062
2023-01-15T07:11:17.994Z,8.305366061384849
2023-01-15T07:14:17.693Z,8.444094995468912
2023-01-15T07:17:16.641Z,8.540434657855439
2023-01-15T07:21:16.395Z,8.63677442256012
2023-01-15T07:24:17.192Z,8.749170944034358
2023-01-15T07:27:16.966Z,8.820462524122922
2023-01-15T07:31:16.490Z,8.902030436734004
2023-01-15T07:34:17.247Z,9.008004605974202
2023-01-15T07:37:16.803Z,9.075442778132947
2023-01-15T07:51:16.024Z,9.418414829541234
2023-01-15T07:54:16.451Z,9.44025204526415
2023-01-15T07:57:20.231Z,9.53402367841636
2023-01-15T08:01:16.957Z,9.595681791394691
2023-01-15T08:04:16.844Z,9.686242220813075
2023-01-15T08:07:16.713Z,9.740835431162214
2023-01-15T08:21:18.139Z,10.255940045110128
2023-01-15T08:24:19.654Z,10.377330461048768
2023-01-15T08:27:20.397Z,10.467249392398298
2023-01-15T08:31:19.545Z,10.57579450683561
2023-01-15T08:34:25.167Z,10.668282754163465
2023-01-15T08:37:19.944Z,10.776185828559482
2023-01-15T08:41:16.828Z,10.89565009635271
2023-01-15T08:44:17.382Z,10.970797055086951
2023-01-15T08:47:17.618Z,11.029244732695314
2023-01-15T08:51:16.901Z,11.11595289522229
2023-01-15T08:54:18.884Z,11.22000279965323
2023-01-15T08:57:17.093Z,11.350386490344771
2023-01-15T09:01:22.130Z,11.470493799810356
2023-01-15T09:04:21.759Z,11.575186397136076
2023-01-15T09:07:19.355Z,11.671529384862605
2023-01-15T09:11:22.973Z,11.760165023938407
2023-01-15T09:14:55.354Z,11.869996262065616
2023-01-15T09:17:18.329Z,11.968908718974854
2023-01-15T09:21:17.345Z,12.06332525572152
2023-01-15T09:24:18.377Z,12.148749826023414
2023-01-15T09:27:18.599Z,12.216190333082432
2023-01-15T09:31:17.307Z,12.312534001565746
2023-01-15T09:34:24.867Z,12.361348165984328
2023-01-15T09:37:21.449Z,12.410804648826888
2023-01-15T09:42:34.818Z,12.446773016919906
2023-01-15T09:44:31.570Z,12.504579352660585
2023-01-15T09:47:25.853Z,12.531555655278499
2023-01-15T09:51:29.264Z,12.640745533534574
2023-01-15T09:54:31.753Z,12.649095353163375
2023-01-15T09:57:24.969Z,12.699836581279305
2023-01-15T10:01:26.867Z,12.74800865954976
2023-01-15T10:04:40.215Z,12.805172892284826
2023-01-15T10:07:42.210Z,12.87454077364273
2023-01-15T10:11:38.037Z,12.922070648899535
2023-01-15T10:14:34.860Z,13.0004307678817
2023-01-15T10:17:26.102Z,13.03318788686165
2023-01-15T10:21:31.008Z,13.074937173293801
2023-01-15T10:24:22.979Z,13.126320936816409
2023-01-15T10:27:20.584Z,13.110905804703725
2023-01-15T10:31:21.853Z,13.106409724997594
2023-01-15T10:35:04.282Z,13.132743909303098
2023-01-15T10:37:28.076Z,13.124394045159079
2023-01-15T10:41:44.617Z,13.178347027034851
2023-01-15T10:44:38.420Z,13.18541230084702
2023-01-15T10:47:32.527Z,13.216242593012065
2023-01-15T10:51:29.802Z,13.311945025015394
2023-01-15T10:54:29.304Z,13.328002489940264
2023-01-15T10:57:38.244Z,13.36332892277942
2023-01-15T11:01:26.647Z,13.409574455650818
2023-01-15T11:04:19.454Z,13.430770332762041
2023-01-15T11:07:21.148Z,13.47444670121331
2023-01-15T11:11:25.421Z,13.556661098870972
2023-01-15T11:31:24.943Z,13.639517871891531
2023-01-15T11:34:22.568Z,13.631810261906594
2023-01-15T11:37:19.559Z,13.64529857980997
2023-01-15T11:41:33.627Z,13.690901955192476
2023-01-15T11:51:50.316Z,13.728797735273838
2023-01-15T11:54:31.987Z,13.743570670780263
2023-01-15T11:57:31.878Z,13.775685756267285
2023-01-15T12:01:25.146Z,13.823858405814098
2023-01-15T12:04:32.351Z,13.816793082279855
2023-01-15T12:07:18.625Z,13.862396543868817
2023-01-15T12:11:31.509Z,13.954888141993433
2023-01-15T12:15:44.940Z,13.943326687071021
2023-01-15T12:17:37.673Z,13.938188263133998
2023-01-15T12:21:33.006Z,14.000491672999578
2023-01-15T12:24:35.631Z,14.00177627983876
2023-01-15T12:27:46.303Z,13.980580269318306
2023-01-15T12:31:23.543Z,13.98828790893458
2023-01-15T12:34:23.043Z,13.995995549205691
2023-01-15T12:37:25.411Z,14.046737530669725
2023-01-15T12:41:23.165Z,14.060868214104357
2023-01-15T12:45:26.302Z,14.03902988608761
2023-01-15T12:47:21.743Z,14.028110724050567
2023-01-15T12:51:25.631Z,14.03324915308076
2023-01-15T12:54:28.145Z,14.040956797171749
2023-01-15T12:57:29.713Z,14.04737983441446
2023-01-15T13:01:25.768Z,14.046737530669725
2023-01-15T13:04:24.707Z,14.046737530669725
2023-01-15T13:07:28.092Z,14.024256902468915
2023-01-15T13:11:29.191Z,13.987003302286393
2023-01-15T13:14:23.543Z,14.003703190131636
2023-01-15T13:17:31.160Z,13.995353245824754
2023-01-15T13:21:17.556Z,14.028753027663424
2023-01-15T13:25:06.931Z,14.022329991739479
2023-01-15T13:27:37.575Z,14.006914707377382
2023-01-15T13:31:36.219Z,13.994068639076522
2023-01-15T13:34:29.703Z,13.970303417515243
2023-01-15T13:37:36.323Z,14.013337742209933
2023-01-15T13:42:51.377Z,13.994068639076522
2023-01-15T13:45:04.746Z,14.012053135207044
2023-01-15T13:47:26.046Z,14.017833866863294
2023-01-15T13:51:28.075Z,14.062795125652338
2023-01-15T13:54:23.887Z,14.049306745675949
2023-01-15T13:57:42.735Z,14.085918067420426
2023-01-15T14:01:43.850Z,14.073071987932781
2023-01-15T14:04:53.986Z,14.091698803783311
2023-01-15T14:07:47.437Z,14.06793355664704
2023-01-15T14:12:01.354Z,14.099406452840139
2023-01-15T14:21:29.821Z,14.118033274097616
2023-01-15T14:24:41.488Z,14.097479540514541
2023-01-15T14:27:34.110Z,14.086560371442555
2023-01-15T14:31:42.320Z,14.10454488590849
2023-01-15T14:34:24.795Z,14.108398710900747
2023-01-15T14:37:25.106Z,14.088487283536233
2023-01-15T14:41:36.440Z,14.099406452840139
2023-01-15T14:44:33.170Z,14.05701439113118
2023-01-15T14:47:26.596Z,14.058298998770715
2023-01-15T14:51:49.254Z,14.077568115546546
2023-01-15T14:54:28.383Z,14.050591353206347
2023-01-15T14:57:27.069Z,14.035176064042115
2023-01-15T15:01:34.146Z,14.028110724050567
2023-01-15T15:04:37.363Z,14.006272403919137
2023-01-15T15:07:35.122Z,13.997922459375786
2023-01-15T15:12:45.733Z,14.014622349231013
2023-01-15T15:14:28.616Z,13.994710942448364
2023-01-15T15:17:35.414Z,13.949749717401573
2023-01-15T15:31:49.097Z,13.964522688887609
2023-01-15T15:34:30.491Z,13.881023316463779
2023-01-15T15:37:48.903Z,13.862396543868817
2023-01-15T15:51:38.204Z,13.82963912547866
2023-01-15T15:54:22.942Z,13.79110100133921
2023-01-15T15:57:23.730Z,13.79238560521344
2023-01-15T16:01:27.647Z,13.811012363433838
2023-01-15T16:04:28.184Z,13.787889491733221
2023-01-15T16:07:33.852Z,13.781466472862302
2023-01-15T16:11:39.223Z,13.784677982240918
2023-01-15T16:14:45.429Z,13.760912815531265
2023-01-15T16:17:29.982Z,13.75513210024592
2023-01-15T16:21:26.131Z,13.776328058092986
2023-01-15T16:24:24.324Z,13.7159517063541
2023-01-15T16:27:51.352Z,13.677413630508818
2023-01-15T16:41:21.315Z,13.690259653971589
2023-01-15T16:44:35.873Z,13.578499310772532
2023-01-15T16:47:22.946Z,13.632452562713661
2023-01-15T16:51:35.142Z,13.61575274320785
2023-01-15T16:54:55.375Z,13.570791705971715
2023-01-15T16:57:29.067Z,13.53931899316458
2023-01-15T17:01:33.614Z,13.566295603473645
2023-01-15T17:04:30.901Z,13.52326149083674
2023-01-15T17:07:30.975Z,13.527757591202043
2023-01-15T17:21:31.891Z,13.388378583491795
2023-01-15T17:24:29.590Z,13.288822280516706
2023-01-15T17:27:22.524Z,13.250926684221486
2023-01-15T17:31:27.339Z,13.315798816338155
2023-01-15T17:34:25.462Z,13.236796126942863
2023-01-15T17:37:34.386Z,13.282399296979657
2023-01-15T17:41:34.052Z,13.250926684221486
2023-01-15T17:44:52.502Z,13.20853501898855
2023-01-15T17:51:23.777Z,13.266341840126552
2023-01-15T18:11:16.114Z,13.20275433890065
2023-01-15T18:14:16.585Z,13.138524584929929
2023-01-15T18:17:16.546Z,13.146232153005348
2023-01-15T18:21:16.285Z,13.153297424316406
2023-01-15T18:24:17.578Z,13.107052022084826
2023-01-15T18:27:17.489Z,13.086498517548899
2023-01-15T18:31:16.185Z,13.162289588599014
2023-01-15T18:34:16.751Z,13.091636893246323
2023-01-15T18:37:16.686Z,13.102555942569689
2023-01-15T18:46:43.621Z,13.109621210479236
2023-01-15T18:47:17.823Z,13.066587314470326
2023-01-15T18:51:16.339Z,13.126320936816409
2023-01-15T18:54:16.748Z,13.119255667606286
2023-01-15T18:57:16.977Z,13.103840536694133
2023-01-15T19:01:16.629Z,13.078148657661313
2023-01-15T19:04:18.984Z,13.076864063900667
2023-01-15T19:07:17.084Z,13.061448940191713
2023-01-15T19:11:16.675Z,13.057595159673747
2023-01-15T19:21:18.881Z,13.057595159673747
2023-01-15T19:24:16.985Z,13.065945017669582
2023-01-15T19:27:17.201Z,13.096132972220312
2023-01-15T19:31:48.279Z,13.055668269476154
2023-01-15T19:34:32.995Z,12.977950398955091
2023-01-15T19:37:16.356Z,12.949689371636577
2023-01-15T19:51:16.398Z,12.904086368846766
2023-01-15T19:54:55.960Z,12.898305708158386
2023-01-15T19:57:20.766Z,12.879036841857396
2023-01-15T20:01:18.062Z,12.938128044816494
2023-01-15T20:04:17.157Z,12.943908708042363
2023-01-15T20:07:17.013Z,12.946477891816539
2023-01-15T20:11:16.995Z,12.915647691328559
2023-01-15T20:14:16.904Z,12.916289987065193
2023-01-15T20:17:17.471Z,12.90986702990349
2023-01-15T20:21:17.525Z,12.941339524340947
2023-01-15T20:24:16.947Z,12.88931357004194
2023-01-15T20:27:17.058Z,12.93877034071229
2023-01-15T20:31:18.105Z,12.916289987065193
2023-01-15T20:34:16.763Z,12.979234991315115
2023-01-15T20:37:17.072Z,12.954185443575625
2023-01-15T20:51:18.446Z,12.967673660729725
2023-01-15T20:54:17.474Z,12.949689371636577
2023-01-15T20:57:16.917Z,12.976023510449158
2023-01-15T21:01:16.295Z,13.02162654940048
2023-01-15T21:04:16.522Z,13.02869181100723
2023-01-15T21:07:16.716Z,13.05374137931949
2023-01-15T21:11:16.218Z,13.104482833763177
2023-01-15T21:14:16.664Z,13.143662963574116
2023-01-15T21:17:16.965Z,13.159078101252907
2023-01-15T21:21:18.229Z,13.168712563632289
2023-01-15T21:31:16.035Z,13.174493241551044
2023-01-15T21:34:17.195Z,13.191835277517384
2023-01-15T21:37:16.888Z,13.115401884632684
2023-01-15T21:41:16.743Z,13.192477575209432
2023-01-15T21:44:43.943Z,13.205965827792898
2023-01-15T21:47:18.507Z,13.1796316222325
2023-01-15T21:51:15.968Z,13.186696896144714
2023-01-15T21:54:16.340Z,13.161647291120698
2023-01-15T21:57:16.416Z,13.191192979829884
2023-01-15T22:01:18.335Z,13.216242593012065
2023-01-15T22:04:16.501Z,13.231657743023607
2023-01-15T22:07:17.551Z,13.240007617040192
2023-01-15T22:11:16.160Z,13.256065069232136
2023-01-15T22:14:19.148Z,13.295887562932695
2023-01-15T22:17:16.619Z,13.311302726477516
2023-01-15T22:21:16.138Z,13.303595144377686
2023-01-15T22:24:17.513Z,13.357548232828048
2023-01-15T22:27:16.821Z,13.286895385407842
2023-01-15T22:31:18.187Z,13.36332892277942
2023-01-15T22:34:17.733Z,13.37810179877306
2023-01-15T22:37:17.316Z,13.374248004803666
2023-01-15T22:42:24.256Z,13.374890303787197
2023-01-15T22:44:15.886Z,13.38902088257537
2023-01-15T22:47:17.682Z,13.38902088257537
2023-01-15T22:51:15.753Z,13.387093985338288
2023-01-15T22:54:18.081Z,13.400582266857327
2023-01-15T22:57:17.261Z,13.382597891944261
2023-01-15T23:01:16.348Z,13.330571684591996
2023-01-15T23:04:18.621Z,13.295887562932695
2023-01-15T23:07:15.891Z,13.307448935345747
2023-01-15T23:11:16.217Z,13.277903208774296
2023-01-15T23:14:17.741Z,13.261845752716999
2023-01-15T23:17:15.981Z,13.256065069232136
2023-01-15T23:21:20.390Z,13.229730849128918
2023-01-15T23:24:16.618Z,13.232942338976136
2023-01-15T23:27:16.686Z,13.259276560011585
2023-01-15T23:31:17.396Z,13.22459246560984
2023-01-15T23:34:16.829Z,13.297172159794718
2023-01-15T23:37:17.087Z,13.30487974134885
2023-01-15T23:41:18.619Z,13.295245264508504
2023-01-15T23:51:16.238Z,13.245146001432385
2023-01-15T23:54:16.595Z,13.229088551173117
2023-01-15T23:57:16.511Z,13.186696896144714
